sensor_id;sensor_type;location;lat;lon;timestamp;temperature;humidity
33207;DHT22;19565;46.602;11.534;2022-09-06T00:02:18;20.10;99.90
33207;DHT22;19565;46.602;11.534;2022-09-06T00:04:47;20.00;99.90
33207;DHT22;19565;46.602;11.534;2022-09-06T00:07:15;19.90;99.90
33207;DHT22;19565;46.602;11.534;2022-09-06T00:09:45;20.00;99.90
33207;DHT22;19565;46.602;11.534;2022-09-06T00:12:13;20.00;99.90
33207;DHT22;19565;46.602;11.534;2022-09-06T00:14:41;20.00;99.90
33207;DHT22;19565;46.602;11.534;2022-09-06T00:17:09;20.10;99.90
33207;DHT22;19565;46.602;11.534;2022-09-06T00:19:38;20.10;99.90
33207;DHT22;19565;46.602;11.534;2022-09-06T00:22:06;20.20;99.90
33207;DHT22;19565;46.602;11.534;2022-09-06T00:24:34;20.20;99.90
33207;DHT22;19565;46.602;11.534;2022-09-06T00:27:05;20.20;99.90
33207;DHT22;19565;46.602;11.534;2022-09-06T00:29:33;20.20;99.90
33207;DHT22;19565;46.602;11.534;2022-09-06T00:32:02;20.10;99.90
33207;DHT22;19565;46.602;11.534;2022-09-06T00:34:30;20.00;99.90
33207;DHT22;19565;46.602;11.534;2022-09-06T00:36:58;20.00;99.90
33207;DHT22;19565;46.602;11.534;2022-09-06T00:39:27;20.00;99.90
33207;DHT22;19565;46.602;11.534;2022-09-06T00:41:55;19.90;99.90
33207;DHT22;19565;46.602;11.534;2022-09-06T00:44:24;19.90;99.90
33207;DHT22;19565;46.602;11.534;2022-09-06T00:46:53;19.90;99.90
33207;DHT22;19565;46.602;11.534;2022-09-06T00:49:25;19.80;99.90
33207;DHT22;19565;46.602;11.534;2022-09-06T00:51:56;19.80;99.90
33207;DHT22;19565;46.602;11.534;2022-09-06T00:54:25;19.80;99.90
33207;DHT22;19565;46.602;11.534;2022-09-06T00:56:54;19.90;99.90
33207;DHT22;19565;46.602;11.534;2022-09-06T00:59:25;19.90;99.90
33207;DHT22;19565;46.602;11.534;2022-09-06T01:01:54;19.90;99.90
33207;DHT22;19565;46.602;11.534;2022-09-06T01:04:22;19.90;99.90
33207;DHT22;19565;46.602;11.534;2022-09-06T01:07:02;19.90;99.90
33207;DHT22;19565;46.602;11.534;2022-09-06T01:09:46;19.90;99.90
33207;DHT22;19565;46.602;11.534;2022-09-06T01:12:29;19.90;99.90
33207;DHT22;19565;46.602;11.534;2022-09-06T01:15:10;19.80;99.90
33207;DHT22;19565;46.602;11.534;2022-09-06T01:17:49;19.80;99.90
33207;DHT22;19565;46.602;11.534;2022-09-06T01:20:31;19.70;99.90
33207;DHT22;19565;46.602;11.534;2022-09-06T01:26:19;19.60;99.90
33207;DHT22;19565;46.602;11.534;2022-09-06T01:28:53;19.60;99.90
33207;DHT22;19565;46.602;11.534;2022-09-06T01:31:29;19.60;99.90
33207;DHT22;19565;46.602;11.534;2022-09-06T01:34:14;19.60;99.90
33207;DHT22;19565;46.602;11.534;2022-09-06T01:36:49;19.50;99.90
33207;DHT22;19565;46.602;11.534;2022-09-06T01:39:37;19.50;99.90
33207;DHT22;19565;46.602;11.534;2022-09-06T01:42:08;19.50;99.90
33207;DHT22;19565;46.602;11.534;2022-09-06T01:44:40;19.40;99.90
33207;DHT22;19565;46.602;11.534;2022-09-06T01:47:16;19.20;99.90
33207;DHT22;19565;46.602;11.534;2022-09-06T01:50:11;19.20;99.90
33207;DHT22;19565;46.602;11.534;2022-09-06T01:52:49;19.20;99.90
33207;DHT22;19565;46.602;11.534;2022-09-06T01:55:28;19.30;99.90
33207;DHT22;19565;46.602;11.534;2022-09-06T01:58:14;19.30;99.90
33207;DHT22;19565;46.602;11.534;2022-09-06T02:00:49;19.30;99.90
33207;DHT22;19565;46.602;11.534;2022-09-06T02:03:27;19.30;99.90
33207;DHT22;19565;46.602;11.534;2022-09-06T02:06:01;19.20;99.90
33207;DHT22;19565;46.602;11.534;2022-09-06T02:08:32;19.30;99.90
33207;DHT22;19565;46.602;11.534;2022-09-06T02:11:03;19.30;99.90
33207;DHT22;19565;46.602;11.534;2022-09-06T02:13:35;19.30;99.90
33207;DHT22;19565;46.602;11.534;2022-09-06T02:16:07;19.30;99.90
33207;DHT22;19565;46.602;11.534;2022-09-06T02:18:40;19.40;99.90
33207;DHT22;19565;46.602;11.534;2022-09-06T02:21:11;19.40;99.90
33207;DHT22;19565;46.602;11.534;2022-09-06T02:23:42;19.40;99.90
33207;DHT22;19565;46.602;11.534;2022-09-06T02:26:14;19.40;99.90
33207;DHT22;19565;46.602;11.534;2022-09-06T02:28:44;19.40;99.90
33207;DHT22;19565;46.602;11.534;2022-09-06T02:31:17;19.40;99.90
33207;DHT22;19565;46.602;11.534;2022-09-06T02:33:47;19.30;99.90
33207;DHT22;19565;46.602;11.534;2022-09-06T02:36:16;19.30;99.90
33207;DHT22;19565;46.602;11.534;2022-09-06T02:38:45;19.20;99.90
33207;DHT22;19565;46.602;11.534;2022-09-06T02:41:20;19.20;99.90
33207;DHT22;19565;46.602;11.534;2022-09-06T02:43:49;19.20;99.90
33207;DHT22;19565;46.602;11.534;2022-09-06T02:46:19;19.20;99.90
33207;DHT22;19565;46.602;11.534;2022-09-06T02:48:49;19.20;99.90
33207;DHT22;19565;46.602;11.534;2022-09-06T02:51:17;19.20;99.90
33207;DHT22;19565;46.602;11.534;2022-09-06T02:53:46;19.20;99.90
33207;DHT22;19565;46.602;11.534;2022-09-06T02:56:14;19.10;99.90
33207;DHT22;19565;46.602;11.534;2022-09-06T02:58:42;19.00;99.90
33207;DHT22;19565;46.602;11.534;2022-09-06T03:01:11;18.80;99.90
33207;DHT22;19565;46.602;11.534;2022-09-06T03:03:40;18.90;99.90
33207;DHT22;19565;46.602;11.534;2022-09-06T03:06:08;18.90;99.90
33207;DHT22;19565;46.602;11.534;2022-09-06T03:08:37;18.70;99.90
33207;DHT22;19565;46.602;11.534;2022-09-06T03:11:05;18.60;99.90
33207;DHT22;19565;46.602;11.534;2022-09-06T03:13:33;18.60;99.90
33207;DHT22;19565;46.602;11.534;2022-09-06T03:16:01;18.60;99.90
33207;DHT22;19565;46.602;11.534;2022-09-06T03:18:30;18.50;99.90
33207;DHT22;19565;46.602;11.534;2022-09-06T03:21:00;18.50;99.90
33207;DHT22;19565;46.602;11.534;2022-09-06T03:23:29;18.20;99.90
33207;DHT22;19565;46.602;11.534;2022-09-06T03:25:57;18.20;99.90
33207;DHT22;19565;46.602;11.534;2022-09-06T03:28:25;18.30;99.90
33207;DHT22;19565;46.602;11.534;2022-09-06T03:30:54;18.50;99.90
33207;DHT22;19565;46.602;11.534;2022-09-06T03:33:23;18.60;99.90
33207;DHT22;19565;46.602;11.534;2022-09-06T03:35:52;18.70;99.90
33207;DHT22;19565;46.602;11.534;2022-09-06T03:38:23;18.70;99.90
33207;DHT22;19565;46.602;11.534;2022-09-06T03:40:52;18.80;99.90
33207;DHT22;19565;46.602;11.534;2022-09-06T03:43:21;18.70;99.90
33207;DHT22;19565;46.602;11.534;2022-09-06T03:45:51;18.50;99.90
33207;DHT22;19565;46.602;11.534;2022-09-06T03:48:21;18.50;99.90
33207;DHT22;19565;46.602;11.534;2022-09-06T03:50:52;18.60;99.90
33207;DHT22;19565;46.602;11.534;2022-09-06T03:53:23;18.60;99.90
33207;DHT22;19565;46.602;11.534;2022-09-06T03:55:53;18.40;99.90
33207;DHT22;19565;46.602;11.534;2022-09-06T03:58:26;18.30;99.90
33207;DHT22;19565;46.602;11.534;2022-09-06T04:01:03;18.50;99.90
33207;DHT22;19565;46.602;11.534;2022-09-06T04:03:32;18.60;99.90
33207;DHT22;19565;46.602;11.534;2022-09-06T04:06:03;18.70;99.90
33207;DHT22;19565;46.602;11.534;2022-09-06T04:08:34;18.70;99.90
33207;DHT22;19565;46.602;11.534;2022-09-06T04:11:03;18.80;99.90
33207;DHT22;19565;46.602;11.534;2022-09-06T04:13:32;18.90;99.90
33207;DHT22;19565;46.602;11.534;2022-09-06T04:16:01;19.00;99.90
33207;DHT22;19565;46.602;11.534;2022-09-06T04:18:29;19.00;99.90
33207;DHT22;19565;46.602;11.534;2022-09-06T04:20:58;19.00;99.90
33207;DHT22;19565;46.602;11.534;2022-09-06T04:23:27;19.00;99.90
33207;DHT22;19565;46.602;11.534;2022-09-06T04:25:57;18.90;99.90
33207;DHT22;19565;46.602;11.534;2022-09-06T04:28:26;18.90;99.90
33207;DHT22;19565;46.602;11.534;2022-09-06T04:30:56;18.90;99.90
33207;DHT22;19565;46.602;11.534;2022-09-06T04:33:31;18.90;99.90
33207;DHT22;19565;46.602;11.534;2022-09-06T04:36:00;18.90;99.90
33207;DHT22;19565;46.602;11.534;2022-09-06T04:38:33;18.90;99.90
33207;DHT22;19565;46.602;11.534;2022-09-06T04:41:03;18.90;99.90
33207;DHT22;19565;46.602;11.534;2022-09-06T04:43:32;18.90;99.90
33207;DHT22;19565;46.602;11.534;2022-09-06T04:46:08;18.90;99.90
33207;DHT22;19565;46.602;11.534;2022-09-06T04:48:38;18.90;99.90
33207;DHT22;19565;46.602;11.534;2022-09-06T04:51:06;18.90;99.90
33207;DHT22;19565;46.602;11.534;2022-09-06T04:53:34;18.90;99.90
33207;DHT22;19565;46.602;11.534;2022-09-06T04:56:04;18.90;99.90
33207;DHT22;19565;46.602;11.534;2022-09-06T04:58:32;18.90;99.90
33207;DHT22;19565;46.602;11.534;2022-09-06T05:01:00;18.90;99.90
33207;DHT22;19565;46.602;11.534;2022-09-06T05:03:29;18.90;99.90
33207;DHT22;19565;46.602;11.534;2022-09-06T05:06:05;18.90;99.90
33207;DHT22;19565;46.602;11.534;2022-09-06T05:08:36;19.00;99.90
33207;DHT22;19565;46.602;11.534;2022-09-06T05:11:07;19.00;99.90
33207;DHT22;19565;46.602;11.534;2022-09-06T05:13:36;19.00;99.90
33207;DHT22;19565;46.602;11.534;2022-09-06T05:16:06;19.00;99.90
33207;DHT22;19565;46.602;11.534;2022-09-06T05:18:35;18.90;99.90
33207;DHT22;19565;46.602;11.534;2022-09-06T05:21:03;18.90;99.90
33207;DHT22;19565;46.602;11.534;2022-09-06T05:23:32;19.00;99.90
33207;DHT22;19565;46.602;11.534;2022-09-06T05:26:00;19.00;99.90
33207;DHT22;19565;46.602;11.534;2022-09-06T05:28:30;19.00;99.90
33207;DHT22;19565;46.602;11.534;2022-09-06T05:31:05;19.10;99.90
33207;DHT22;19565;46.602;11.534;2022-09-06T05:33:34;19.10;99.90
33207;DHT22;19565;46.602;11.534;2022-09-06T05:36:02;19.20;99.90
33207;DHT22;19565;46.602;11.534;2022-09-06T05:38:31;19.20;99.90
33207;DHT22;19565;46.602;11.534;2022-09-06T05:40:59;19.20;99.90
33207;DHT22;19565;46.602;11.534;2022-09-06T05:43:27;19.30;99.90
33207;DHT22;19565;46.602;11.534;2022-09-06T05:45:57;19.30;99.90
33207;DHT22;19565;46.602;11.534;2022-09-06T05:48:25;19.30;99.90
33207;DHT22;19565;46.602;11.534;2022-09-06T05:51:00;19.40;99.90
33207;DHT22;19565;46.602;11.534;2022-09-06T05:53:33;19.40;99.90
33207;DHT22;19565;46.602;11.534;2022-09-06T05:56:02;19.40;99.90
33207;DHT22;19565;46.602;11.534;2022-09-06T05:58:30;19.40;99.90
33207;DHT22;19565;46.602;11.534;2022-09-06T06:01:15;19.40;99.90
33207;DHT22;19565;46.602;11.534;2022-09-06T06:03:52;19.40;99.90
33207;DHT22;19565;46.602;11.534;2022-09-06T06:06:21;19.40;99.90
33207;DHT22;19565;46.602;11.534;2022-09-06T06:08:49;19.50;99.90
33207;DHT22;19565;46.602;11.534;2022-09-06T06:11:18;19.50;99.90
33207;DHT22;19565;46.602;11.534;2022-09-06T06:13:46;19.50;99.90
33207;DHT22;19565;46.602;11.534;2022-09-06T06:16:17;19.50;99.90
33207;DHT22;19565;46.602;11.534;2022-09-06T06:18:46;19.50;99.90
33207;DHT22;19565;46.602;11.534;2022-09-06T06:21:19;19.40;99.90
33207;DHT22;19565;46.602;11.534;2022-09-06T06:23:49;19.40;99.90
33207;DHT22;19565;46.602;11.534;2022-09-06T06:26:18;19.50;99.90
33207;DHT22;19565;46.602;11.534;2022-09-06T06:28:46;19.50;99.90
33207;DHT22;19565;46.602;11.534;2022-09-06T06:31:16;19.60;99.90
33207;DHT22;19565;46.602;11.534;2022-09-06T06:33:45;19.70;99.90
33207;DHT22;19565;46.602;11.534;2022-09-06T06:36:20;19.70;99.90
33207;DHT22;19565;46.602;11.534;2022-09-06T06:38:51;19.70;99.90
33207;DHT22;19565;46.602;11.534;2022-09-06T06:41:21;19.70;99.90
33207;DHT22;19565;46.602;11.534;2022-09-06T06:43:51;19.70;99.90
33207;DHT22;19565;46.602;11.534;2022-09-06T06:46:22;19.60;99.90
33207;DHT22;19565;46.602;11.534;2022-09-06T06:48:51;19.60;99.90
33207;DHT22;19565;46.602;11.534;2022-09-06T06:51:22;19.70;99.90
33207;DHT22;19565;46.602;11.534;2022-09-06T06:53:51;19.60;99.90
33207;DHT22;19565;46.602;11.534;2022-09-06T06:56:21;19.60;99.90
33207;DHT22;19565;46.602;11.534;2022-09-06T06:58:51;19.60;99.90
33207;DHT22;19565;46.602;11.534;2022-09-06T07:01:22;19.60;99.90
33207;DHT22;19565;46.602;11.534;2022-09-06T07:03:50;19.60;99.90
33207;DHT22;19565;46.602;11.534;2022-09-06T07:06:20;19.60;99.90
33207;DHT22;19565;46.602;11.534;2022-09-06T07:09:08;19.60;99.90
33207;DHT22;19565;46.602;11.534;2022-09-06T07:11:36;19.60;99.90
33207;DHT22;19565;46.602;11.534;2022-09-06T07:14:04;19.60;99.90
33207;DHT22;19565;46.602;11.534;2022-09-06T07:16:33;19.70;99.90
33207;DHT22;19565;46.602;11.534;2022-09-06T07:19:02;19.70;99.90
33207;DHT22;19565;46.602;11.534;2022-09-06T07:21:30;19.70;99.90
33207;DHT22;19565;46.602;11.534;2022-09-06T07:24:03;19.70;99.90
33207;DHT22;19565;46.602;11.534;2022-09-06T07:26:35;19.80;99.90
33207;DHT22;19565;46.602;11.534;2022-09-06T07:29:05;19.80;99.90
33207;DHT22;19565;46.602;11.534;2022-09-06T07:31:36;19.90;99.90
33207;DHT22;19565;46.602;11.534;2022-09-06T07:34:25;19.90;99.90
33207;DHT22;19565;46.602;11.534;2022-09-06T07:36:54;20.00;99.90
33207;DHT22;19565;46.602;11.534;2022-09-06T07:39:22;20.10;99.90
33207;DHT22;19565;46.602;11.534;2022-09-06T07:41:51;20.20;99.90
33207;DHT22;19565;46.602;11.534;2022-09-06T07:44:19;20.20;99.90
33207;DHT22;19565;46.602;11.534;2022-09-06T07:46:48;20.20;99.90
33207;DHT22;19565;46.602;11.534;2022-09-06T07:49:18;20.20;99.90
33207;DHT22;19565;46.602;11.534;2022-09-06T07:51:47;20.30;99.90
33207;DHT22;19565;46.602;11.534;2022-09-06T07:54:15;20.30;99.90
33207;DHT22;19565;46.602;11.534;2022-09-06T07:56:59;20.30;99.70
33207;DHT22;19565;46.602;11.534;2022-09-06T07:59:27;20.30;99.00
33207;DHT22;19565;46.602;11.534;2022-09-06T08:01:56;20.30;98.50
33207;DHT22;19565;46.602;11.534;2022-09-06T08:04:25;20.40;97.80
33207;DHT22;19565;46.602;11.534;2022-09-06T08:06:53;20.50;97.90
33207;DHT22;19565;46.602;11.534;2022-09-06T08:09:43;20.60;98.10
33207;DHT22;19565;46.602;11.534;2022-09-06T08:12:11;20.60;97.90
33207;DHT22;19565;46.602;11.534;2022-09-06T08:14:41;20.60;97.50
33207;DHT22;19565;46.602;11.534;2022-09-06T08:17:10;20.60;97.60
33207;DHT22;19565;46.602;11.534;2022-09-06T08:19:39;20.60;97.30
33207;DHT22;19565;46.602;11.534;2022-09-06T08:22:07;20.70;97.30
33207;DHT22;19565;46.602;11.534;2022-09-06T08:24:35;20.70;97.10
33207;DHT22;19565;46.602;11.534;2022-09-06T08:27:04;20.80;97.10
33207;DHT22;19565;46.602;11.534;2022-09-06T08:29:33;20.80;97.10
33207;DHT22;19565;46.602;11.534;2022-09-06T08:32:02;20.80;96.70
33207;DHT22;19565;46.602;11.534;2022-09-06T08:34:31;21.00;97.00
33207;DHT22;19565;46.602;11.534;2022-09-06T08:36:59;21.00;97.00
33207;DHT22;19565;46.602;11.534;2022-09-06T08:39:27;21.00;95.40
33207;DHT22;19565;46.602;11.534;2022-09-06T08:41:59;21.10;95.50
33207;DHT22;19565;46.602;11.534;2022-09-06T08:44:31;21.10;95.30
33207;DHT22;19565;46.602;11.534;2022-09-06T08:47:21;21.20;94.90
33207;DHT22;19565;46.602;11.534;2022-09-06T08:49:53;21.20;94.70
33207;DHT22;19565;46.602;11.534;2022-09-06T08:52:38;21.30;94.60
33207;DHT22;19565;46.602;11.534;2022-09-06T08:55:36;21.30;94.50
33207;DHT22;19565;46.602;11.534;2022-09-06T08:58:26;21.40;94.40
33207;DHT22;19565;46.602;11.534;2022-09-06T09:01:00;21.50;93.90
33207;DHT22;19565;46.602;11.534;2022-09-06T09:03:32;21.60;94.10
33207;DHT22;19565;46.602;11.534;2022-09-06T09:06:05;21.60;93.90
33207;DHT22;19565;46.602;11.534;2022-09-06T09:08:42;21.70;94.10
33207;DHT22;19565;46.602;11.534;2022-09-06T09:11:16;21.80;94.00
33207;DHT22;19565;46.602;11.534;2022-09-06T09:13:51;21.90;93.60
33207;DHT22;19565;46.602;11.534;2022-09-06T09:16:22;21.90;94.10
33207;DHT22;19565;46.602;11.534;2022-09-06T09:18:52;22.00;94.60
33207;DHT22;19565;46.602;11.534;2022-09-06T09:21:24;22.00;94.50
33207;DHT22;19565;46.602;11.534;2022-09-06T09:23:58;22.10;94.20
33207;DHT22;19565;46.602;11.534;2022-09-06T09:26:35;22.20;93.00
33207;DHT22;19565;46.602;11.534;2022-09-06T09:29:06;22.20;92.10
33207;DHT22;19565;46.602;11.534;2022-09-06T09:31:37;22.30;92.40
33207;DHT22;19565;46.602;11.534;2022-09-06T09:34:10;22.30;92.20
33207;DHT22;19565;46.602;11.534;2022-09-06T09:36:40;22.40;92.60
33207;DHT22;19565;46.602;11.534;2022-09-06T09:39:33;22.40;92.30
33207;DHT22;19565;46.602;11.534;2022-09-06T09:42:03;22.50;92.40
33207;DHT22;19565;46.602;11.534;2022-09-06T09:44:31;22.60;90.80
33207;DHT22;19565;46.602;11.534;2022-09-06T09:47:00;22.60;90.90
33207;DHT22;19565;46.602;11.534;2022-09-06T09:49:36;22.60;91.30
33207;DHT22;19565;46.602;11.534;2022-09-06T09:52:09;22.70;91.30
33207;DHT22;19565;46.602;11.534;2022-09-06T09:54:40;22.80;91.10
33207;DHT22;19565;46.602;11.534;2022-09-06T09:57:10;22.90;90.60
33207;DHT22;19565;46.602;11.534;2022-09-06T09:59:42;22.90;90.40
33207;DHT22;19565;46.602;11.534;2022-09-06T10:02:18;23.00;90.20
33207;DHT22;19565;46.602;11.534;2022-09-06T10:04:48;23.00;90.40
33207;DHT22;19565;46.602;11.534;2022-09-06T10:07:20;23.10;89.50
33207;DHT22;19565;46.602;11.534;2022-09-06T10:09:56;23.10;89.90
33207;DHT22;19565;46.602;11.534;2022-09-06T10:12:28;23.20;89.20
33207;DHT22;19565;46.602;11.534;2022-09-06T10:14:57;23.20;90.30
33207;DHT22;19565;46.602;11.534;2022-09-06T10:17:34;23.30;90.30
33207;DHT22;19565;46.602;11.534;2022-09-06T10:20:04;23.30;90.40
33207;DHT22;19565;46.602;11.534;2022-09-06T10:22:42;23.40;89.50
33207;DHT22;19565;46.602;11.534;2022-09-06T10:25:38;23.40;90.70
33207;DHT22;19565;46.602;11.534;2022-09-06T10:28:27;23.50;91.10
33207;DHT22;19565;46.602;11.534;2022-09-06T10:34:00;23.60;90.40
33207;DHT22;19565;46.602;11.534;2022-09-06T10:36:32;23.60;90.20
33207;DHT22;19565;46.602;11.534;2022-09-06T10:39:08;23.70;90.20
33207;DHT22;19565;46.602;11.534;2022-09-06T10:41:52;23.70;90.30
33207;DHT22;19565;46.602;11.534;2022-09-06T10:44:33;23.80;90.00
33207;DHT22;19565;46.602;11.534;2022-09-06T10:47:09;23.90;90.10
33207;DHT22;19565;46.602;11.534;2022-09-06T10:49:39;23.90;90.30
33207;DHT22;19565;46.602;11.534;2022-09-06T10:52:10;24.00;90.30
33207;DHT22;19565;46.602;11.534;2022-09-06T10:54:42;24.00;89.30
33207;DHT22;19565;46.602;11.534;2022-09-06T10:57:17;24.10;88.00
33207;DHT22;19565;46.602;11.534;2022-09-06T11:00:09;24.10;85.90
33207;DHT22;19565;46.602;11.534;2022-09-06T11:02:44;24.20;86.70
33207;DHT22;19565;46.602;11.534;2022-09-06T11:05:18;24.20;84.80
33207;DHT22;19565;46.602;11.534;2022-09-06T11:08:07;24.30;83.50
33207;DHT22;19565;46.602;11.534;2022-09-06T11:11:04;24.30;84.20
33207;DHT22;19565;46.602;11.534;2022-09-06T11:13:33;24.40;83.20
33207;DHT22;19565;46.602;11.534;2022-09-06T11:16:05;24.50;84.00
33207;DHT22;19565;46.602;11.534;2022-09-06T11:18:38;24.60;85.20
33207;DHT22;19565;46.602;11.534;2022-09-06T11:21:39;24.70;85.00
33207;DHT22;19565;46.602;11.534;2022-09-06T11:24:12;24.70;84.80
33207;DHT22;19565;46.602;11.534;2022-09-06T11:26:56;24.80;84.60
33207;DHT22;19565;46.602;11.534;2022-09-06T11:29:29;24.90;83.70
33207;DHT22;19565;46.602;11.534;2022-09-06T11:31:59;24.90;81.00
33207;DHT22;19565;46.602;11.534;2022-09-06T11:34:51;25.00;80.40
33207;DHT22;19565;46.602;11.534;2022-09-06T11:37:25;25.00;78.80
33207;DHT22;19565;46.602;11.534;2022-09-06T11:40:07;25.10;80.10
33207;DHT22;19565;46.602;11.534;2022-09-06T11:43:15;25.10;79.50
33207;DHT22;19565;46.602;11.534;2022-09-06T11:45:46;25.20;79.50
33207;DHT22;19565;46.602;11.534;2022-09-06T11:48:45;25.30;79.90
33207;DHT22;19565;46.602;11.534;2022-09-06T11:51:31;25.30;80.40
33207;DHT22;19565;46.602;11.534;2022-09-06T11:54:15;25.30;77.90
33207;DHT22;19565;46.602;11.534;2022-09-06T11:56:52;25.40;78.40
33207;DHT22;19565;46.602;11.534;2022-09-06T11:59:34;25.40;78.10
33207;DHT22;19565;46.602;11.534;2022-09-06T12:02:05;25.50;77.30
33207;DHT22;19565;46.602;11.534;2022-09-06T12:08:10;25.60;79.00
33207;DHT22;19565;46.602;11.534;2022-09-06T12:10:49;25.70;76.70
33207;DHT22;19565;46.602;11.534;2022-09-06T12:13:58;25.70;76.90
33207;DHT22;19565;46.602;11.534;2022-09-06T12:19:42;25.80;76.10
33207;DHT22;19565;46.602;11.534;2022-09-06T12:25:16;26.00;75.90
33207;DHT22;19565;46.602;11.534;2022-09-06T12:27:53;26.10;73.60
33207;DHT22;19565;46.602;11.534;2022-09-06T12:30:33;26.20;74.50
33207;DHT22;19565;46.602;11.534;2022-09-06T12:33:05;26.20;74.20
33207;DHT22;19565;46.602;11.534;2022-09-06T12:35:37;26.30;74.80
33207;DHT22;19565;46.602;11.534;2022-09-06T12:38:23;26.40;75.90
33207;DHT22;19565;46.602;11.534;2022-09-06T12:40:52;26.50;74.80
33207;DHT22;19565;46.602;11.534;2022-09-06T12:43:25;26.50;74.60
33207;DHT22;19565;46.602;11.534;2022-09-06T12:45:54;26.60;73.80
33207;DHT22;19565;46.602;11.534;2022-09-06T12:48:26;26.60;73.30
33207;DHT22;19565;46.602;11.534;2022-09-06T12:51:04;26.60;74.40
33207;DHT22;19565;46.602;11.534;2022-09-06T12:53:33;26.70;74.20
33207;DHT22;19565;46.602;11.534;2022-09-06T12:56:03;26.70;73.80
33207;DHT22;19565;46.602;11.534;2022-09-06T12:58:31;26.80;72.60
33207;DHT22;19565;46.602;11.534;2022-09-06T13:01:06;26.70;72.70
33207;DHT22;19565;46.602;11.534;2022-09-06T13:03:39;26.80;72.80
33207;DHT22;19565;46.602;11.534;2022-09-06T13:06:14;26.80;71.80
33207;DHT22;19565;46.602;11.534;2022-09-06T13:08:53;26.80;72.10
33207;DHT22;19565;46.602;11.534;2022-09-06T13:11:26;27.00;72.00
33207;DHT22;19565;46.602;11.534;2022-09-06T13:13:55;27.00;72.00
33207;DHT22;19565;46.602;11.534;2022-09-06T13:16:25;27.00;70.90
33207;DHT22;19565;46.602;11.534;2022-09-06T13:18:54;27.10;70.10
33207;DHT22;19565;46.602;11.534;2022-09-06T13:21:39;27.10;69.70
33207;DHT22;19565;46.602;11.534;2022-09-06T13:24:18;27.10;70.40
33207;DHT22;19565;46.602;11.534;2022-09-06T13:26:46;27.10;70.60
33207;DHT22;19565;46.602;11.534;2022-09-06T13:29:22;27.10;70.70
33207;DHT22;19565;46.602;11.534;2022-09-06T13:31:52;27.10;71.40
33207;DHT22;19565;46.602;11.534;2022-09-06T13:34:22;27.20;71.00
33207;DHT22;19565;46.602;11.534;2022-09-06T13:36:54;27.20;70.00
33207;DHT22;19565;46.602;11.534;2022-09-06T13:39:31;27.20;69.80
33207;DHT22;19565;46.602;11.534;2022-09-06T13:42:01;27.30;68.90
33207;DHT22;19565;46.602;11.534;2022-09-06T13:44:32;27.30;68.50
33207;DHT22;19565;46.602;11.534;2022-09-06T13:47:01;27.30;69.20
33207;DHT22;19565;46.602;11.534;2022-09-06T13:49:30;27.40;67.70
33207;DHT22;19565;46.602;11.534;2022-09-06T13:52:01;27.40;68.40
33207;DHT22;19565;46.602;11.534;2022-09-06T13:54:31;27.40;68.00
33207;DHT22;19565;46.602;11.534;2022-09-06T13:57:00;27.50;68.00
33207;DHT22;19565;46.602;11.534;2022-09-06T13:59:29;27.60;67.80
33207;DHT22;19565;46.602;11.534;2022-09-06T14:02:02;27.80;66.90
33207;DHT22;19565;46.602;11.534;2022-09-06T14:04:30;27.90;66.30
33207;DHT22;19565;46.602;11.534;2022-09-06T14:07:00;27.90;66.10
33207;DHT22;19565;46.602;11.534;2022-09-06T14:09:29;28.00;66.00
33207;DHT22;19565;46.602;11.534;2022-09-06T14:12:31;28.00;65.20
33207;DHT22;19565;46.602;11.534;2022-09-06T14:15:00;27.90;65.90
33207;DHT22;19565;46.602;11.534;2022-09-06T14:17:28;27.80;65.90
33207;DHT22;19565;46.602;11.534;2022-09-06T14:19:58;27.80;66.30
33207;DHT22;19565;46.602;11.534;2022-09-06T14:22:28;27.60;67.00
33207;DHT22;19565;46.602;11.534;2022-09-06T14:24:57;27.50;66.90
33207;DHT22;19565;46.602;11.534;2022-09-06T14:27:25;27.40;67.70
33207;DHT22;19565;46.602;11.534;2022-09-06T14:29:53;27.40;69.20
33207;DHT22;19565;46.602;11.534;2022-09-06T14:32:21;27.30;70.40
33207;DHT22;19565;46.602;11.534;2022-09-06T14:34:50;27.30;70.60
33207;DHT22;19565;46.602;11.534;2022-09-06T14:37:18;27.30;71.40
33207;DHT22;19565;46.602;11.534;2022-09-06T14:40:26;27.30;71.50
33207;DHT22;19565;46.602;11.534;2022-09-06T14:42:54;27.40;70.30
33207;DHT22;19565;46.602;11.534;2022-09-06T14:45:23;27.50;70.90
33207;DHT22;19565;46.602;11.534;2022-09-06T14:47:51;27.70;71.40
33207;DHT22;19565;46.602;11.534;2022-09-06T14:50:20;27.90;70.10
33207;DHT22;19565;46.602;11.534;2022-09-06T14:52:48;28.20;69.60
33207;DHT22;19565;46.602;11.534;2022-09-06T14:55:16;28.60;68.00
33207;DHT22;19565;46.602;11.534;2022-09-06T14:57:46;29.00;66.10
33207;DHT22;19565;46.602;11.534;2022-09-06T15:00:15;29.30;64.50
33207;DHT22;19565;46.602;11.534;2022-09-06T15:02:43;29.60;63.60
33207;DHT22;19565;46.602;11.534;2022-09-06T15:05:11;29.90;62.20
33207;DHT22;19565;46.602;11.534;2022-09-06T15:07:39;30.10;61.10
33207;DHT22;19565;46.602;11.534;2022-09-06T15:10:08;30.20;60.80
33207;DHT22;19565;46.602;11.534;2022-09-06T15:12:36;30.20;60.20
33207;DHT22;19565;46.602;11.534;2022-09-06T15:15:07;30.10;60.20
33207;DHT22;19565;46.602;11.534;2022-09-06T15:17:35;29.60;62.10
33207;DHT22;19565;46.602;11.534;2022-09-06T15:20:04;29.10;63.20
33207;DHT22;19565;46.602;11.534;2022-09-06T15:22:32;28.70;63.90
33207;DHT22;19565;46.602;11.534;2022-09-06T15:25:01;28.40;65.40
33207;DHT22;19565;46.602;11.534;2022-09-06T15:27:29;28.10;66.40
33207;DHT22;19565;46.602;11.534;2022-09-06T15:29:58;27.80;67.10
33207;DHT22;19565;46.602;11.534;2022-09-06T15:32:28;27.60;68.20
33207;DHT22;19565;46.602;11.534;2022-09-06T15:34:56;27.40;69.00
33207;DHT22;19565;46.602;11.534;2022-09-06T15:37:30;27.30;69.50
33207;DHT22;19565;46.602;11.534;2022-09-06T15:39:58;27.20;70.00
33207;DHT22;19565;46.602;11.534;2022-09-06T15:42:27;27.10;70.90
33207;DHT22;19565;46.602;11.534;2022-09-06T15:44:55;27.00;70.50
33207;DHT22;19565;46.602;11.534;2022-09-06T15:47:23;27.00;72.10
33207;DHT22;19565;46.602;11.534;2022-09-06T15:49:52;26.90;73.00
33207;DHT22;19565;46.602;11.534;2022-09-06T15:52:21;26.80;74.60
33207;DHT22;19565;46.602;11.534;2022-09-06T15:54:49;26.80;75.00
33207;DHT22;19565;46.602;11.534;2022-09-06T15:57:33;26.70;74.20
33207;DHT22;19565;46.602;11.534;2022-09-06T16:00:03;26.60;76.00
33207;DHT22;19565;46.602;11.534;2022-09-06T16:02:31;26.60;75.30
33207;DHT22;19565;46.602;11.534;2022-09-06T16:05:01;26.60;74.20